createdAt,value
2022-09-22T00:01:42.288Z,99806.81
2022-09-22T00:04:14.258Z,99793.63
2022-09-22T00:06:47.472Z,99790.72
2022-09-22T00:09:19.893Z,99791.75
2022-09-22T00:11:54.529Z,99790.94
2022-09-22T00:14:27.001Z,99783.31
2022-09-22T00:16:58.854Z,99788.44
2022-09-22T00:19:31.601Z,99787.44
2022-09-22T00:22:01.297Z,99776.09
2022-09-22T00:24:31.650Z,99775.28
2022-09-22T00:27:02.129Z,99780.00
2022-09-22T00:29:32.068Z,99771.78
2022-09-22T00:32:06.354Z,99771.78
2022-09-22T00:34:35.989Z,99773.91
2022-09-22T00:37:04.614Z,99773.50
2022-09-22T00:39:33.281Z,99773.09
2022-09-22T00:42:03.426Z,99770.63
2022-09-22T00:44:42.776Z,99771.91
2022-09-22T00:47:28.480Z,99768.97
2022-09-22T00:50:04.606Z,99765.03
2022-09-22T00:52:38.721Z,99761.63
2022-09-22T00:55:14.242Z,99758.75
2022-09-22T00:57:47.527Z,99755.88
2022-09-22T01:00:17.198Z,99760.63
2022-09-22T01:02:51.974Z,99758.34
2022-09-22T01:05:21.419Z,99756.28
2022-09-22T01:07:51.266Z,99753.19
2022-09-22T01:10:20.682Z,99747.22
2022-09-22T01:13:16.260Z,99748.06
2022-09-22T01:16:01.640Z,99749.31
2022-09-22T01:18:55.210Z,99746.41
2022-09-22T01:21:44.577Z,99750.16
2022-09-22T01:25:04.832Z,99741.91
2022-09-22T01:28:16.388Z,99746.44
2022-09-22T01:30:51.687Z,99744.00
2022-09-22T01:33:42.809Z,99746.28
2022-09-22T01:36:23.631Z,99744.00
2022-09-22T01:39:08.066Z,99740.34
2022-09-22T01:41:55.048Z,99740.75
2022-09-22T01:44:34.153Z,99742.00
2022-09-22T01:47:10.782Z,99747.94
2022-09-22T01:49:45.628Z,99745.06
2022-09-22T01:52:21.010Z,99744.47
2022-09-22T01:54:57.166Z,99745.50
2022-09-22T01:57:39.082Z,99745.28
2022-09-22T02:00:12.074Z,99745.69
2022-09-22T02:02:53.733Z,99741.59
2022-09-22T02:05:31.418Z,99740.13
2022-09-22T02:08:10.543Z,99748.56
2022-09-22T02:10:45.513Z,99748.38
2022-09-22T02:13:14.444Z,99741.38
2022-09-22T02:16:10.355Z,99744.47
2022-09-22T02:18:49.480Z,99739.31
2022-09-22T02:21:19.573Z,99736.63
2022-09-22T02:23:50.560Z,99735.00
2022-09-22T02:26:24.749Z,99731.53
2022-09-22T02:28:59.801Z,99732.97
2022-09-22T02:31:32.918Z,99736.22
2022-09-22T02:34:05.301Z,99724.72
2022-09-22T02:36:50.143Z,99728.22
2022-09-22T02:39:28.547Z,99737.47
2022-09-22T02:42:21.697Z,99732.53
2022-09-22T02:44:58.026Z,99735.00
2022-09-22T02:47:35.472Z,99737.25
2022-09-22T02:50:11.737Z,99736.66
2022-09-22T02:52:41.761Z,99736.00
2022-09-22T02:55:15.824Z,99738.91
2022-09-22T02:57:44.539Z,99730.25
2022-09-22T03:00:14.996Z,99729.00
2022-09-22T03:02:43.584Z,99728.41
2022-09-22T03:05:13.756Z,99721.00
2022-09-22T03:07:42.422Z,99726.72
2022-09-22T03:10:12.278Z,99719.34
2022-09-22T03:13:08.914Z,99719.75
2022-09-22T03:15:37.824Z,99723.88
2022-09-22T03:18:06.671Z,99713.97
2022-09-22T03:20:36.924Z,99716.88
2022-09-22T03:23:06.782Z,99720.94
2022-09-22T03:25:35.626Z,99711.91
2022-09-22T03:28:04.574Z,99712.50
2022-09-22T03:30:33.502Z,99711.47
2022-09-22T03:33:02.341Z,99711.47
2022-09-22T03:35:31.014Z,99722.34
2022-09-22T03:38:03.224Z,99719.44
2022-09-22T03:40:32.343Z,99709.81
2022-09-22T03:43:01.680Z,99722.91
2022-09-22T03:45:30.360Z,99716.97
2022-09-22T03:48:02.486Z,99719.00
2022-09-22T03:50:31.501Z,99718.38
2022-09-22T03:53:54.681Z,99720.19
2022-09-22T03:56:23.617Z,99718.78
2022-09-22T03:58:52.499Z,99713.84
2022-09-22T04:01:27.389Z,99713.00
2022-09-22T04:04:18.847Z,99713.84
2022-09-22T04:06:49.815Z,99721.22
2022-09-22T04:09:19.806Z,99720.38
2022-09-22T04:11:48.605Z,99718.31
2022-09-22T04:14:17.333Z,99717.28
2022-09-22T04:16:46.299Z,99715.66
2022-09-22T04:19:15.750Z,99719.41
2022-09-22T04:21:45.319Z,99719.63
2022-09-22T04:24:13.949Z,99716.28
2022-09-22T04:27:02.159Z,99717.50
2022-09-22T04:29:33.968Z,99717.06
2022-09-22T04:32:03.593Z,99711.34
2022-09-22T04:34:33.717Z,99709.47
2022-09-22T04:37:02.440Z,99712.56
2022-09-22T04:39:31.110Z,99710.88
2022-09-22T04:42:01.210Z,99710.25
2022-09-22T04:44:34.736Z,99709.22
2022-09-22T04:47:04.337Z,99709.78
2022-09-22T04:49:33.123Z,99714.53
2022-09-22T04:52:01.746Z,99713.63
2022-09-22T04:54:30.284Z,99715.69
2022-09-22T04:57:00.216Z,99722.66
2022-09-22T04:59:29.651Z,99727.59
2022-09-22T05:01:58.200Z,99719.38
2022-09-22T05:04:26.787Z,99725.09
2022-09-22T05:06:55.526Z,99722.63
2022-09-22T05:09:24.207Z,99726.81
2022-09-22T05:11:53.559Z,99724.72
2022-09-22T05:14:26.405Z,99729.63
2022-09-22T05:16:55.280Z,99736.41
2022-09-22T05:19:23.854Z,99733.94
2022-09-22T05:21:52.393Z,99738.03
2022-09-22T05:24:21.019Z,99738.03
2022-09-22T05:26:49.553Z,99744.16
2022-09-22T05:29:18.443Z,99739.66
2022-09-22T05:31:48.514Z,99747.19
2022-09-22T05:34:17.222Z,99744.72
2022-09-22T05:36:45.927Z,99750.06
2022-09-22T05:39:15.091Z,99750.50
2022-09-22T05:41:43.707Z,99752.53
2022-09-22T05:44:12.395Z,99748.94
2022-09-22T05:46:40.964Z,99752.78
2022-09-22T05:49:10.900Z,99755.06
2022-09-22T05:51:39.467Z,99762.59
2022-09-22T05:54:09.990Z,99763.28
2022-09-22T05:56:38.510Z,99766.34
2022-09-22T05:59:07.101Z,99761.50
2022-09-22T06:01:35.667Z,99768.69
2022-09-22T06:04:04.269Z,99768.31
2022-09-22T06:06:34.392Z,99765.50
2022-09-22T06:09:03.121Z,99763.50
2022-09-22T06:11:31.706Z,99766.19
2022-09-22T06:14:00.333Z,99756.34
2022-09-22T06:16:29.001Z,99756.81
2022-09-22T06:18:57.626Z,99758.28
2022-09-22T06:21:26.857Z,99755.44
2022-09-22T06:23:57.598Z,99756.25
2022-09-22T06:26:26.168Z,99757.13
2022-09-22T06:28:54.910Z,99752.63
2022-09-22T06:31:23.484Z,99748.13
2022-09-22T06:33:52.095Z,99747.13
2022-09-22T06:36:24.124Z,99755.13
2022-09-22T06:38:54.241Z,99754.53
2022-09-22T06:41:24.152Z,99746.50
2022-09-22T06:43:56.195Z,99754.53
2022-09-22T06:46:26.195Z,99750.22
2022-09-22T06:48:57.325Z,99748.16
2022-09-22T06:51:26.847Z,99742.59
2022-09-22T06:53:56.059Z,99736.25
2022-09-22T06:56:28.027Z,99737.88
2022-09-22T06:59:12.593Z,99736.25
2022-09-22T07:01:43.559Z,99744.84
2022-09-22T07:04:13.590Z,99733.56
2022-09-22T07:06:42.785Z,99746.69
2022-09-22T07:09:12.456Z,99737.84
2022-09-22T07:11:42.448Z,99744.00
2022-09-22T07:14:12.738Z,99741.09
2022-09-22T07:16:43.223Z,99742.50
2022-09-22T07:19:11.902Z,99740.66
2022-09-22T07:21:40.548Z,99741.22
2022-09-22T07:24:09.441Z,99740.97
2022-09-22T07:26:43.406Z,99743.22
2022-09-22T07:29:13.822Z,99737.44
2022-09-22T07:31:43.320Z,99736.97
2022-09-22T07:34:13.641Z,99737.56
2022-09-22T07:36:42.265Z,99730.09
2022-09-22T07:39:12.200Z,99725.50
2022-09-22T07:41:47.444Z,99732.28
2022-09-22T07:44:34.593Z,99730.34
2022-09-22T07:47:04.930Z,99736.31
2022-09-22T07:49:33.588Z,99727.00
2022-09-22T07:52:02.248Z,99737.19
2022-09-22T07:54:30.818Z,99735.09
2022-09-22T07:57:06.763Z,99737.25
2022-09-22T07:59:36.293Z,99737.38
2022-09-22T08:02:06.241Z,99740.97
2022-09-22T08:04:35.379Z,99743.97
2022-09-22T08:07:04.711Z,99742.63
2022-09-22T08:09:33.648Z,99742.72
2022-09-22T08:12:04.153Z,99742.81
2022-09-22T08:14:32.846Z,99739.22
2022-09-22T08:17:01.431Z,99745.09
2022-09-22T08:19:34.523Z,99739.56
2022-09-22T08:22:03.513Z,99744.31
2022-09-22T08:24:32.118Z,99740.25
2022-09-22T08:27:00.777Z,99739.03
2022-09-22T08:29:31.498Z,99729.72
2022-09-22T08:32:00.084Z,99738.06
2022-09-22T08:34:28.714Z,99739.69
2022-09-22T08:36:57.293Z,99740.53
2022-09-22T08:39:26.010Z,99745.44
2022-09-22T08:42:11.574Z,99741.00
2022-09-22T08:44:56.675Z,99741.03
2022-09-22T08:47:54.632Z,99739.78
2022-09-22T08:50:49.463Z,99736.53
2022-09-22T08:53:22.981Z,99748.47
2022-09-22T08:56:00.581Z,99735.34
2022-09-22T08:58:44.177Z,99733.97
2022-09-22T09:01:35.819Z,99738.41
2022-09-22T09:04:35.036Z,99735.13
2022-09-22T09:07:13.439Z,99738.38
2022-09-22T09:10:04.539Z,99734.09
2022-09-22T09:12:55.637Z,99738.78
2022-09-22T09:15:49.866Z,99739.44
2022-09-22T09:18:28.430Z,99741.91
2022-09-22T09:21:00.564Z,99731.84
2022-09-22T09:26:30.102Z,99741.09
2022-09-22T09:29:04.031Z,99733.69
2022-09-22T09:31:39.787Z,99732.38
2022-09-22T09:34:16.895Z,99734.72
2022-09-22T09:36:55.378Z,99730.84
2022-09-22T09:39:33.188Z,99729.84
2022-09-22T09:42:04.866Z,99729.44
2022-09-22T09:44:40.154Z,99727.66
2022-09-22T09:47:21.498Z,99727.69
2022-09-22T09:49:53.270Z,99727.16
2022-09-22T09:52:26.180Z,99729.34
2022-09-22T09:54:55.854Z,99726.69
2022-09-22T09:57:28.350Z,99724.50
2022-09-22T10:00:32.099Z,99720.34
2022-09-22T10:03:17.272Z,99721.16
2022-09-22T10:06:00.251Z,99726.00
2022-09-22T10:08:35.233Z,99726.22
2022-09-22T10:11:05.858Z,99722.09
2022-09-22T10:13:37.810Z,99724.88
2022-09-22T10:16:24.172Z,99716.50
2022-09-22T10:19:05.749Z,99711.97
2022-09-22T10:21:37.723Z,99719.97
2022-09-22T10:24:30.250Z,99715.66
2022-09-22T10:27:02.395Z,99722.81
2022-09-22T10:29:34.113Z,99713.22
2022-09-22T10:32:13.316Z,99709.63
2022-09-22T10:37:28.137Z,99710.09
2022-09-22T10:40:04.771Z,99708.56
2022-09-22T10:42:38.118Z,99711.34
2022-09-22T10:45:12.961Z,99708.66
2022-09-22T10:47:59.055Z,99699.84
2022-09-22T10:50:47.073Z,99701.47
2022-09-22T10:53:37.718Z,99698.22
2022-09-22T10:56:18.872Z,99703.13
2022-09-22T10:59:23.615Z,99701.53
2022-09-22T11:02:35.004Z,99699.34
2022-09-22T11:05:45.470Z,99697.94
2022-09-22T11:08:34.815Z,99693.09
2022-09-22T11:11:37.247Z,99694.97
2022-09-22T11:14:27.736Z,99681.84
2022-09-22T11:17:25.903Z,99681.09
2022-09-22T11:20:32.373Z,99687.34
2022-09-22T11:23:35.787Z,99686.22
2022-09-22T11:26:36.046Z,99681.25
2022-09-22T11:29:45.179Z,99689.38
2022-09-22T11:32:48.386Z,99686.00
2022-09-22T11:35:51.032Z,99686.56
2022-09-22T11:38:55.503Z,99688.22
2022-09-22T11:41:35.637Z,99679.44
2022-09-22T11:44:31.519Z,99672.13
2022-09-22T11:47:26.105Z,99671.63
2022-09-22T11:50:31.727Z,99667.66
2022-09-22T11:53:44.249Z,99672.31
2022-09-22T11:56:34.309Z,99667.44
2022-09-22T11:59:12.523Z,99655.53
2022-09-22T12:01:44.227Z,99651.91
2022-09-22T12:04:42.081Z,99648.91
2022-09-22T12:07:21.660Z,99651.88
2022-09-22T12:09:57.056Z,99643.75
2022-09-22T12:12:31.150Z,99648.38
2022-09-22T12:15:08.808Z,99639.06
2022-09-22T12:17:49.515Z,99640.66
2022-09-22T12:20:39.145Z,99643.75
2022-09-22T12:23:37.260Z,99650.44
2022-09-22T12:26:09.504Z,99644.31
2022-09-22T12:28:46.782Z,99645.78
2022-09-22T12:31:19.011Z,99642.56
2022-09-22T12:33:52.562Z,99645.19
2022-09-22T12:36:31.079Z,99640.38
2022-09-22T12:39:18.213Z,99643.09
2022-09-22T12:41:52.449Z,99635.19
2022-09-22T12:44:27.105Z,99642.47
2022-09-22T12:47:01.632Z,99640.03
2022-09-22T12:49:31.588Z,99639.22
2022-09-22T12:52:00.414Z,99637.00
2022-09-22T12:54:39.602Z,99638.06
2022-09-22T12:57:43.783Z,99637.50
2022-09-22T13:00:36.057Z,99636.28
2022-09-22T13:03:50.471Z,99635.50
2022-09-22T13:06:57.381Z,99636.44
2022-09-22T13:09:30.151Z,99641.13
2022-09-22T13:12:29.249Z,99630.59
2022-09-22T13:15:18.972Z,99626.19
2022-09-22T13:17:51.701Z,99634.25
2022-09-22T13:20:25.478Z,99633.66
2022-09-22T13:22:56.762Z,99622.00
2022-09-22T13:25:31.228Z,99623.03
2022-09-22T13:28:20.135Z,99624.69
2022-09-22T13:31:03.488Z,99631.16
2022-09-22T13:33:37.737Z,99621.78
2022-09-22T13:36:12.386Z,99616.66
2022-09-22T13:38:45.163Z,99618.53
2022-09-22T13:41:19.135Z,99611.88
2022-09-22T13:43:53.017Z,99617.28
2022-09-22T13:46:26.416Z,99617.28
2022-09-22T13:48:59.892Z,99610.25
2022-09-22T13:51:28.987Z,99602.09
2022-09-22T13:53:58.876Z,99599.13
2022-09-22T13:56:28.631Z,99597.75
2022-09-22T13:59:03.296Z,99597.16
2022-09-22T14:01:32.620Z,99593.09
2022-09-22T14:04:04.194Z,99588.28
2022-09-22T14:06:35.946Z,99589.25
2022-09-22T14:09:06.446Z,99587.97
2022-09-22T14:11:37.718Z,99586.06
2022-09-22T14:14:08.426Z,99591.13
2022-09-22T14:16:47.985Z,99584.28
2022-09-22T14:19:24.197Z,99590.16
2022-09-22T14:21:59.692Z,99589.50
2022-09-22T14:24:29.285Z,99593.78
2022-09-22T14:27:04.057Z,99593.38
2022-09-22T14:29:35.282Z,99594.53
2022-09-22T14:32:16.614Z,99593.47
2022-09-22T14:34:51.790Z,99595.59
2022-09-22T14:37:29.073Z,99590.94
2022-09-22T14:40:00.538Z,99587.81
2022-09-22T14:42:32.087Z,99580.63
2022-09-22T14:45:21.324Z,99578.91
2022-09-22T14:48:19.029Z,99583.94
2022-09-22T14:50:55.745Z,99580.34
2022-09-22T14:53:30.453Z,99580.19
2022-09-22T14:56:06.009Z,99576.81
2022-09-22T14:58:40.676Z,99575.69
2022-09-22T15:01:39.964Z,99573.97
2022-09-22T15:04:18.149Z,99576.97
2022-09-22T15:06:48.280Z,99576.75
2022-09-22T15:09:26.151Z,99576.41
2022-09-22T15:11:57.994Z,99580.97
2022-09-22T15:14:42.437Z,99577.88
2022-09-22T15:17:55.479Z,99565.59
2022-09-22T15:20:28.988Z,99571.47
2022-09-22T15:22:59.902Z,99561.97
2022-09-22T15:25:28.660Z,99561.16
2022-09-22T15:27:57.382Z,99562.72
2022-09-22T15:30:27.076Z,99567.50
2022-09-22T15:32:56.059Z,99556.56
2022-09-22T15:35:25.181Z,99564.03
2022-09-22T15:37:55.520Z,99568.41
2022-09-22T15:40:25.821Z,99575.66
2022-09-22T15:43:12.122Z,99567.59
2022-09-22T15:45:48.898Z,99571.16
2022-09-22T15:48:35.000Z,99565.16
2022-09-22T15:51:07.334Z,99573.72
2022-09-22T15:53:37.902Z,99564.09
2022-09-22T15:56:18.586Z,99569.97
2022-09-22T15:58:47.892Z,99571.63
2022-09-22T16:01:18.173Z,99573.25
2022-09-22T16:03:47.121Z,99566.22
2022-09-22T16:06:18.267Z,99565.88
2022-09-22T16:08:51.976Z,99561.78
2022-09-22T16:11:29.965Z,99560.41
2022-09-22T16:14:03.691Z,99559.13
2022-09-22T16:16:35.620Z,99555.88
2022-09-22T16:19:07.952Z,99555.50
2022-09-22T16:21:40.565Z,99558.56
2022-09-22T16:24:12.659Z,99553.88
2022-09-22T16:26:43.627Z,99558.19
2022-09-22T16:29:14.621Z,99556.56
2022-09-22T16:31:44.789Z,99557.16
2022-09-22T16:34:14.674Z,99553.88
2022-09-22T16:36:44.866Z,99556.00
2022-09-22T16:39:15.664Z,99553.53
2022-09-22T16:41:48.738Z,99560.41
2022-09-22T16:44:19.702Z,99566.50
2022-09-22T16:46:48.833Z,99563.91
2022-09-22T16:49:21.089Z,99567.63
2022-09-22T16:51:55.405Z,99565.28
2022-09-22T16:54:26.364Z,99565.19
2022-09-22T16:56:57.893Z,99567.38
2022-09-22T16:59:27.915Z,99570.41
2022-09-22T17:01:57.181Z,99570.41
2022-09-22T17:04:26.178Z,99570.75
2022-09-22T17:06:55.355Z,99573.63
2022-09-22T17:09:24.946Z,99570.00
2022-09-22T17:11:57.968Z,99568.13
2022-09-22T17:14:29.235Z,99576.03
2022-09-22T17:17:05.945Z,99577.09
2022-09-22T17:19:35.385Z,99576.56
2022-09-22T17:22:05.102Z,99583.19
2022-09-22T17:24:34.746Z,99576.63
2022-09-22T17:27:07.052Z,99573.00
2022-09-22T17:29:36.533Z,99582.75
2022-09-22T17:32:08.406Z,99586.25
2022-09-22T17:34:38.667Z,99585.75
2022-09-22T17:37:07.672Z,99592.31
2022-09-22T17:39:36.712Z,99587.84
2022-09-22T17:42:07.671Z,99589.72
2022-09-22T17:44:38.019Z,99588.59
2022-09-22T17:47:24.410Z,99583.88
2022-09-22T17:50:10.573Z,99592.06
2022-09-22T17:52:57.924Z,99593.59
2022-09-22T17:55:27.133Z,99583.94
2022-09-22T17:58:10.218Z,99588.41
2022-09-22T18:00:39.339Z,99581.13
2022-09-22T18:03:08.473Z,99584.25
2022-09-22T18:05:39.125Z,99597.50
2022-09-22T18:08:08.371Z,99597.16
2022-09-22T18:10:42.188Z,99593.44
2022-09-22T18:13:27.793Z,99590.94
2022-09-22T18:15:57.220Z,99597.63
2022-09-22T18:18:26.135Z,99593.34
2022-09-22T18:20:55.577Z,99598.81
2022-09-22T18:23:28.288Z,99598.09
2022-09-22T18:26:00.467Z,99597.00
2022-09-22T18:28:31.140Z,99598.78
2022-09-22T18:31:00.899Z,99607.03
2022-09-22T18:33:30.831Z,99599.66
2022-09-22T18:35:59.846Z,99596.38
2022-09-22T18:38:29.994Z,99600.69
2022-09-22T18:40:59.299Z,99599.28
2022-09-22T18:43:30.436Z,99596.06
2022-09-22T18:45:59.877Z,99608.41
2022-09-22T18:48:28.845Z,99608.66
2022-09-22T18:50:57.967Z,99600.25
2022-09-22T18:53:27.317Z,99601.47
2022-09-22T18:55:56.745Z,99600.91
2022-09-22T18:58:26.163Z,99603.41
2022-09-22T19:00:56.748Z,99609.00
2022-09-22T19:03:25.910Z,99604.50
2022-09-22T19:05:55.181Z,99602.88
2022-09-22T19:08:26.472Z,99601.63
2022-09-22T19:10:55.785Z,99600.84
2022-09-22T19:13:25.829Z,99600.88
2022-09-22T19:15:58.010Z,99613.81
2022-09-22T19:18:27.257Z,99603.97
2022-09-22T19:20:55.995Z,99600.28
2022-09-22T19:23:24.950Z,99603.72
2022-09-22T19:25:53.708Z,99604.78
2022-09-22T19:28:23.064Z,99605.44
2022-09-22T19:30:52.060Z,99599.31
2022-09-22T19:33:22.928Z,99602.63
2022-09-22T19:35:52.121Z,99607.97
2022-09-22T19:38:21.334Z,99599.34
2022-09-22T19:40:50.709Z,99599.34
2022-09-22T19:43:20.087Z,99597.69
2022-09-22T19:45:52.758Z,99594.63
2022-09-22T19:48:25.499Z,99599.38
2022-09-22T19:50:54.433Z,99595.69
2022-09-22T19:53:23.369Z,99599.38
2022-09-22T19:55:53.884Z,99603.69
2022-09-22T19:58:23.480Z,99597.75
2022-09-22T20:00:52.495Z,99602.06
2022-09-22T20:03:22.959Z,99597.75
2022-09-22T20:05:52.122Z,99596.13
2022-09-22T20:08:21.699Z,99599.00
2022-09-22T20:11:05.923Z,99604.34
2022-09-22T20:13:57.846Z,99600.84
2022-09-22T20:16:28.184Z,99598.63
2022-09-22T20:18:58.229Z,99592.84
2022-09-22T20:21:27.875Z,99589.78
2022-09-22T20:23:56.584Z,99592.25
2022-09-22T20:26:25.515Z,99594.09
2022-09-22T20:28:56.434Z,99598.22
2022-09-22T20:31:25.414Z,99596.56
2022-09-22T20:33:54.122Z,99603.97
2022-09-22T20:36:24.346Z,99593.91
2022-09-22T20:38:53.357Z,99589.97
2022-09-22T20:41:25.081Z,99590.78
2022-09-22T20:43:54.553Z,99589.75
2022-09-22T20:46:24.321Z,99594.47
2022-09-22T20:48:55.518Z,99599.16
2022-09-22T20:51:26.050Z,99589.13
2022-09-22T20:53:54.813Z,99585.00
2022-09-22T20:56:24.067Z,99585.00
2022-09-22T20:58:52.791Z,99584.19
2022-09-22T21:01:21.637Z,99586.66
2022-09-22T21:03:50.441Z,99583.56
2022-09-22T21:06:19.389Z,99586.03
2022-09-22T21:09:08.937Z,99584.38
2022-09-22T21:11:38.365Z,99583.75
2022-09-22T21:14:07.606Z,99577.19
2022-09-22T21:16:38.387Z,99576.16
2022-09-22T21:19:07.731Z,99581.28
2022-09-22T21:21:37.941Z,99578.00
2022-09-22T21:24:11.113Z,99575.13
2022-09-22T21:26:39.965Z,99575.09
2022-09-22T21:29:10.233Z,99582.47
2022-09-22T21:31:38.926Z,99577.56
2022-09-22T21:34:07.634Z,99581.25
2022-09-22T21:36:36.483Z,99580.84
2022-09-22T21:39:05.319Z,99580.00
2022-09-22T21:41:35.557Z,99580.00
2022-09-22T21:44:05.447Z,99573.81
2022-09-22T21:46:42.212Z,99571.78
2022-09-22T21:49:11.907Z,99572.81
2022-09-22T21:51:42.941Z,99579.97
2022-09-22T21:54:15.554Z,99575.44
2022-09-22T21:56:46.297Z,99576.47
2022-09-22T21:59:15.659Z,99576.63
2022-09-22T22:01:45.227Z,99570.91
2022-09-22T22:04:15.375Z,99573.75
2022-09-22T22:06:46.360Z,99578.06
2022-09-22T22:09:18.177Z,99567.78
2022-09-22T22:11:53.317Z,99565.94
2022-09-22T22:14:23.892Z,99570.63
2022-09-22T22:16:55.347Z,99566.75
2022-09-22T22:19:26.984Z,99561.50
2022-09-22T22:21:56.609Z,99564.56
2022-09-22T22:24:31.921Z,99560.81
2022-09-22T22:27:06.441Z,99568.78
2022-09-22T22:29:36.459Z,99559.78
2022-09-22T22:32:07.608Z,99558.91
2022-09-22T22:34:36.273Z,99559.09
2022-09-22T22:37:08.838Z,99559.25
2022-09-22T22:39:37.592Z,99560.31
2022-09-22T22:42:08.666Z,99555.03
2022-09-22T22:44:37.214Z,99553.03
2022-09-22T22:47:06.409Z,99549.91
2022-09-22T22:49:35.091Z,99552.38
2022-09-22T22:52:04.091Z,99551.94
2022-09-22T22:54:32.638Z,99561.50
2022-09-22T22:57:01.225Z,99556.53
2022-09-22T22:59:31.225Z,99555.09
2022-09-22T23:01:59.845Z,99552.81
2022-09-22T23:04:28.478Z,99546.47
2022-09-22T23:06:57.073Z,99552.81
2022-09-22T23:09:25.992Z,99553.88
2022-09-22T23:11:55.150Z,99549.44
2022-09-22T23:14:23.720Z,99550.22
2022-09-22T23:16:53.693Z,99544.88
2022-09-22T23:19:22.292Z,99546.47
2022-09-22T23:21:51.596Z,99546.94
2022-09-22T23:24:21.051Z,99537.06
2022-09-22T23:26:49.710Z,99534.59
2022-09-22T23:29:18.307Z,99526.41
2022-09-22T23:31:46.937Z,99528.81
2022-09-22T23:34:17.204Z,99524.72
2022-09-22T23:36:45.805Z,99526.75
2022-09-22T23:39:14.366Z,99521.84
2022-09-22T23:41:43.197Z,99527.16
2022-09-22T23:44:12.454Z,99522.00
2022-09-22T23:46:41.040Z,99522.19
2022-09-22T23:49:09.649Z,99521.59
2022-09-22T23:51:39.746Z,99514.44
2022-09-22T23:54:08.875Z,99516.50
2022-09-22T23:56:37.921Z,99514.41
2022-09-22T23:59:06.763Z,99509.84
